TimeCDT,TemperatureF,Dew PointF,Humidity,Sea Level PressureIn,VisibilityMPH,Wind Direction,Wind SpeedMPH,Gust SpeedMPH,PrecipitationIn,Events,Conditions,WindDirDegrees,DateUTC
12:15 AM,42.8,30.2,61,29.84,10.0,East,10.4,-,N/A,,Clear,90,2014-03-21 05:15:00
12:35 AM,44.6,30.2,57,29.83,10.0,East,13.8,20.7,N/A,,Clear,100,2014-03-21 05:35:00
12:55 AM,44.6,30.2,57,29.83,10.0,East,13.8,20.7,N/A,,Partly Cloudy,100,2014-03-21 05:55:00
1:15 AM,42.8,30.2,61,29.83,10.0,ESE,13.8,21.9,N/A,,Partly Cloudy,110,2014-03-21 06:15:00
1:35 AM,42.8,30.2,61,29.84,10.0,Variable,6.9,-,N/A,,Scattered Clouds,0,2014-03-21 06:35:00
1:55 AM,41.0,30.2,65,29.83,10.0,ESE,4.6,11.5,N/A,,Scattered Clouds,110,2014-03-21 06:55:00
2:15 AM,41.0,30.2,65,29.84,10.0,ESE,5.8,11.5,N/A,,Partly Cloudy,120,2014-03-21 07:15:00
2:35 AM,41.0,30.2,65,29.83,10.0,ESE,3.5,-,N/A,,Clear,110,2014-03-21 07:35:00
2:55 AM,41.0,30.2,65,29.81,10.0,ESE,5.8,-,N/A,,Clear,110,2014-03-21 07:55:00
3:15 AM,41.0,30.2,65,29.81,10.0,ESE,6.9,-,N/A,,Clear,110,2014-03-21 08:15:00
3:35 AM,39.2,30.2,70,29.81,10.0,SE,6.9,-,N/A,,Clear,140,2014-03-21 08:35:00
3:55 AM,39.2,30.2,70,29.81,10.0,SSE,4.6,-,N/A,,Clear,160,2014-03-21 08:55:00
4:15 AM,39.2,30.2,70,29.81,10.0,SSE,8.1,-,N/A,,Clear,160,2014-03-21 09:15:00
4:35 AM,37.4,30.2,75,29.80,10.0,SE,6.9,-,N/A,,Clear,140,2014-03-21 09:35:00
4:55 AM,37.4,30.2,75,29.79,10.0,SE,8.1,-,N/A,,Clear,140,2014-03-21 09:55:00
5:15 AM,37.4,30.2,75,29.78,10.0,ESE,5.8,-,N/A,,Clear,120,2014-03-21 10:15:00
5:35 AM,37.4,30.2,75,29.77,10.0,SE,5.8,-,N/A,,Clear,140,2014-03-21 10:35:00
5:55 AM,37.4,30.2,75,29.76,10.0,ESE,3.5,-,N/A,,Clear,120,2014-03-21 10:55:00
6:15 AM,37.4,30.2,75,29.76,10.0,East,5.8,-,N/A,,Partly Cloudy,100,2014-03-21 11:15:00
6:35 AM,35.6,30.2,81,29.77,10.0,Calm,Calm,-,N/A,,Partly Cloudy,0,2014-03-21 11:35:00
6:55 AM,32.0,28.4,87,29.78,10.0,South,6.9,-,N/A,,Partly Cloudy,190,2014-03-21 11:55:00
7:15 AM,35.6,30.2,81,29.82,10.0,NW,11.5,20.7,N/A,,Clear,310,2014-03-21 12:15:00
7:35 AM,35.6,30.2,81,29.83,10.0,NW,6.9,15.0,N/A,,Clear,320,2014-03-21 12:35:00
7:55 AM,33.8,28.4,81,29.82,10.0,Calm,Calm,-,N/A,,Clear,0,2014-03-21 12:55:00
8:15 AM,33.8,30.2,87,29.82,10.0,Calm,Calm,-,N/A,,Clear,0,2014-03-21 13:15:00
8:35 AM,37.4,30.2,75,29.83,10.0,Calm,Calm,-,N/A,,Clear,0,2014-03-21 13:35:00
8:55 AM,37.4,32.0,81,29.83,10.0,Calm,Calm,-,N/A,,Clear,0,2014-03-21 13:55:00
9:15 AM,41.0,32.0,70,29.83,10.0,Calm,Calm,-,N/A,,Clear,0,2014-03-21 14:15:00
9:35 AM,44.6,32.0,61,29.83,10.0,NNW,4.6,-,N/A,,Clear,340,2014-03-21 14:35:00
9:55 AM,48.2,32.0,54,29.84,10.0,NNW,11.5,-,N/A,,Clear,330,2014-03-21 14:55:00
10:15 AM,48.2,32.0,54,29.84,10.0,NW,15.0,20.7,N/A,,Clear,320,2014-03-21 15:15:00
10:35 AM,50.0,33.8,54,29.84,10.0,NNW,16.1,23.0,N/A,,Clear,330,2014-03-21 15:35:00
10:55 AM,50.0,33.8,54,29.85,10.0,NNW,19.6,26.5,N/A,,Clear,340,2014-03-21 15:55:00
11:15 AM,51.8,33.8,50,29.85,10.0,NNW,15.0,25.3,N/A,,Clear,340,2014-03-21 16:15:00
11:35 AM,53.6,33.8,47,29.85,10.0,North,19.6,-,N/A,,Clear,350,2014-03-21 16:35:00
11:55 AM,53.6,33.8,47,29.86,10.0,NNW,16.1,-,N/A,,Clear,330,2014-03-21 16:55:00
12:15 PM,55.4,32.0,41,29.86,10.0,NNW,20.7,-,N/A,,Clear,330,2014-03-21 17:15:00
12:35 PM,57.2,30.2,36,29.86,10.0,North,24.2,-,N/A,,Clear,350,2014-03-21 17:35:00
12:55 PM,55.4,30.2,38,29.86,10.0,NNW,20.7,31.1,N/A,,Clear,340,2014-03-21 17:55:00
1:15 PM,55.4,28.4,36,29.87,10.0,NNW,23.0,32.2,N/A,,Clear,340,2014-03-21 18:15:00
1:35 PM,57.2,28.4,33,29.87,10.0,NNW,20.7,26.5,N/A,,Clear,340,2014-03-21 18:35:00
1:55 PM,59.0,28.4,31,29.87,10.0,NNW,17.3,31.1,N/A,,Clear,330,2014-03-21 18:55:00
2:15 PM,59.0,28.4,31,29.87,10.0,NW,21.9,27.6,N/A,,Clear,320,2014-03-21 19:15:00
2:35 PM,59.0,28.4,31,29.88,10.0,NNW,18.4,28.8,N/A,,Clear,330,2014-03-21 19:35:00
2:55 PM,59.0,28.4,31,29.88,10.0,NW,21.9,29.9,N/A,,Clear,320,2014-03-21 19:55:00
3:15 PM,59.0,28.4,31,29.89,10.0,NNW,19.6,29.9,N/A,,Clear,330,2014-03-21 20:15:00
3:35 PM,57.2,28.4,33,29.90,10.0,NW,18.4,31.1,N/A,,Clear,320,2014-03-21 20:35:00
3:55 PM,59.0,28.4,31,29.90,10.0,NW,20.7,35.7,N/A,,Clear,320,2014-03-21 20:55:00
4:15 PM,57.2,28.4,33,29.91,10.0,NNW,25.3,33.4,N/A,,Clear,330,2014-03-21 21:15:00
4:35 PM,57.2,28.4,33,29.92,10.0,NNW,20.7,31.1,N/A,,Scattered Clouds,330,2014-03-21 21:35:00
4:55 PM,57.2,28.4,33,29.93,10.0,NW,20.7,35.7,N/A,,Mostly Cloudy,320,2014-03-21 21:55:00
5:15 PM,55.4,26.6,33,29.94,10.0,NW,19.6,32.2,N/A,,Partly Cloudy,320,2014-03-21 22:15:00
5:35 PM,55.4,28.4,36,29.96,10.0,NNW,19.6,31.1,N/A,,Scattered Clouds,340,2014-03-21 22:35:00
5:55 PM,51.8,30.2,44,29.98,10.0,NNW,23.0,31.1,N/A,,Mostly Cloudy,340,2014-03-21 22:55:00
6:15 PM,51.8,30.2,44,29.99,10.0,North,19.6,28.8,N/A,,Mostly Cloudy,350,2014-03-21 23:15:00
6:35 PM,50.0,30.2,47,30.00,10.0,NNW,18.4,28.8,N/A,,Overcast,340,2014-03-21 23:35:00
6:55 PM,48.2,30.2,50,30.02,10.0,NNW,18.4,-,N/A,,Scattered Clouds,340,2014-03-21 23:55:00
7:15 PM,48.2,32.0,54,30.04,10.0,NNW,18.4,26.5,N/A,,Scattered Clouds,330,2014-03-22 00:15:00
7:35 PM,46.4,32.0,57,30.05,10.0,North,21.9,29.9,N/A,,Overcast,350,2014-03-22 00:35:00
7:55 PM,44.6,30.2,57,30.07,10.0,North,21.9,29.9,N/A,,Overcast,350,2014-03-22 00:55:00
8:15 PM,42.8,30.2,61,30.09,10.0,North,19.6,27.6,N/A,,Mostly Cloudy,360,2014-03-22 01:15:00
8:35 PM,41.0,30.2,65,30.10,10.0,North,16.1,-,N/A,,Partly Cloudy,360,2014-03-22 01:35:00
8:55 PM,41.0,28.4,61,30.12,10.0,North,23.0,-,N/A,,Mostly Cloudy,360,2014-03-22 01:55:00
9:15 PM,41.0,28.4,61,30.13,10.0,North,16.1,26.5,N/A,,Overcast,350,2014-03-22 02:15:00
9:35 PM,39.2,26.6,61,30.14,10.0,North,16.1,21.9,N/A,,Mostly Cloudy,350,2014-03-22 02:35:00
9:55 PM,39.2,26.6,61,30.15,10.0,North,11.5,21.9,N/A,,Partly Cloudy,350,2014-03-22 02:55:00
10:15 PM,37.4,26.6,65,30.16,10.0,North,12.7,-,N/A,,Clear,350,2014-03-22 03:15:00
10:35 PM,37.4,24.8,60,30.17,10.0,North,15.0,-,N/A,,Clear,350,2014-03-22 03:35:00
10:55 PM,37.4,24.8,60,30.18,10.0,North,16.1,-,N/A,,Clear,350,2014-03-22 03:55:00
11:15 PM,35.6,24.8,65,30.20,10.0,North,13.8,20.7,N/A,,Clear,350,2014-03-22 04:15:00
11:35 PM,35.6,24.8,65,30.20,10.0,North,13.8,23.0,N/A,,Clear,350,2014-03-22 04:35:00
11:55 PM,33.8,24.8,70,30.21,10.0,North,15.0,23.0,N/A,,Clear,360,2014-03-22 04:55:00